sensor_id;sensor_type;location;lat;lon;timestamp;temperature;humidity
44111;DHT22;29774;52.664;5.074;2023-02-18T00:01:16;8.80;88.50
44111;DHT22;29774;52.664;5.074;2023-02-18T00:03:42;8.80;88.50
44111;DHT22;29774;52.664;5.074;2023-02-18T00:08:36;8.90;88.60
44111;DHT22;29774;52.664;5.074;2023-02-18T00:11:04;8.90;88.60
44111;DHT22;29774;52.664;5.074;2023-02-18T00:13:30;8.90;88.60
44111;DHT22;29774;52.664;5.074;2023-02-18T00:16:07;8.90;88.60
44111;DHT22;29774;52.664;5.074;2023-02-18T00:18:33;9.00;88.60
44111;DHT22;29774;52.664;5.074;2023-02-18T00:20:59;9.00;88.70
44111;DHT22;29774;52.664;5.074;2023-02-18T00:23:24;9.00;88.80
44111;DHT22;29774;52.664;5.074;2023-02-18T00:26:02;9.00;88.90
44111;DHT22;29774;52.664;5.074;2023-02-18T00:28:28;9.00;89.00
44111;DHT22;29774;52.664;5.074;2023-02-18T00:30:53;9.00;89.00
44111;DHT22;29774;52.664;5.074;2023-02-18T00:33:19;9.00;89.10
44111;DHT22;29774;52.664;5.074;2023-02-18T00:35:46;9.10;89.20
44111;DHT22;29774;52.664;5.074;2023-02-18T00:38:12;9.10;89.20
44111;DHT22;29774;52.664;5.074;2023-02-18T00:40:38;9.10;89.20
44111;DHT22;29774;52.664;5.074;2023-02-18T00:43:04;9.10;89.20
44111;DHT22;29774;52.664;5.074;2023-02-18T00:45:30;9.10;89.20
44111;DHT22;29774;52.664;5.074;2023-02-18T00:47:55;9.10;89.20
44111;DHT22;29774;52.664;5.074;2023-02-18T00:50:21;9.10;89.30
44111;DHT22;29774;52.664;5.074;2023-02-18T00:52:47;9.10;89.30
44111;DHT22;29774;52.664;5.074;2023-02-18T00:55:12;9.10;89.30
44111;DHT22;29774;52.664;5.074;2023-02-18T00:57:38;9.10;89.20
44111;DHT22;29774;52.664;5.074;2023-02-18T01:00:05;9.10;89.30
44111;DHT22;29774;52.664;5.074;2023-02-18T01:02:31;9.10;89.20
44111;DHT22;29774;52.664;5.074;2023-02-18T01:04:57;9.10;89.30
44111;DHT22;29774;52.664;5.074;2023-02-18T01:07:22;9.10;89.30
44111;DHT22;29774;52.664;5.074;2023-02-18T01:09:48;9.10;89.30
44111;DHT22;29774;52.664;5.074;2023-02-18T01:12:14;9.10;89.30
44111;DHT22;29774;52.664;5.074;2023-02-18T01:14:39;9.20;89.40
44111;DHT22;29774;52.664;5.074;2023-02-18T01:17:05;9.20;89.50
44111;DHT22;29774;52.664;5.074;2023-02-18T01:19:31;9.20;89.60
44111;DHT22;29774;52.664;5.074;2023-02-18T01:21:56;9.20;89.70
44111;DHT22;29774;52.664;5.074;2023-02-18T01:24:22;9.20;89.80
44111;DHT22;29774;52.664;5.074;2023-02-18T01:26:47;9.20;89.90
44111;DHT22;29774;52.664;5.074;2023-02-18T01:29:13;9.20;89.90
44111;DHT22;29774;52.664;5.074;2023-02-18T01:31:39;9.20;90.00
44111;DHT22;29774;52.664;5.074;2023-02-18T01:34:04;9.20;90.10
44111;DHT22;29774;52.664;5.074;2023-02-18T01:36:30;9.20;90.20
44111;DHT22;29774;52.664;5.074;2023-02-18T01:38:55;9.20;90.30
44111;DHT22;29774;52.664;5.074;2023-02-18T01:41:21;9.20;90.40
44111;DHT22;29774;52.664;5.074;2023-02-18T01:43:47;9.20;90.40
44111;DHT22;29774;52.664;5.074;2023-02-18T01:48:52;9.20;90.40
44111;DHT22;29774;52.664;5.074;2023-02-18T01:51:24;9.20;90.40
44111;DHT22;29774;52.664;5.074;2023-02-18T01:53:55;9.20;90.50
44111;DHT22;29774;52.664;5.074;2023-02-18T01:56:32;9.20;90.50
44111;DHT22;29774;52.664;5.074;2023-02-18T01:59:01;9.20;90.60
44111;DHT22;29774;52.664;5.074;2023-02-18T02:01:28;9.20;90.60
44111;DHT22;29774;52.664;5.074;2023-02-18T02:03:53;9.20;90.70
44111;DHT22;29774;52.664;5.074;2023-02-18T02:06:21;9.20;90.70
44111;DHT22;29774;52.664;5.074;2023-02-18T02:08:50;9.20;90.70
44111;DHT22;29774;52.664;5.074;2023-02-18T02:14:15;9.20;90.80
44111;DHT22;29774;52.664;5.074;2023-02-18T02:17:07;9.20;90.80
44111;DHT22;29774;52.664;5.074;2023-02-18T02:19:45;9.20;90.90
44111;DHT22;29774;52.664;5.074;2023-02-18T02:22:27;9.20;90.90
44111;DHT22;29774;52.664;5.074;2023-02-18T02:30:52;9.30;91.00
44111;DHT22;29774;52.664;5.074;2023-02-18T02:33:39;9.30;91.00
44111;DHT22;29774;52.664;5.074;2023-02-18T02:36:18;9.30;91.00
44111;DHT22;29774;52.664;5.074;2023-02-18T02:41:58;9.30;91.00
44111;DHT22;29774;52.664;5.074;2023-02-18T02:47:09;9.40;91.10
44111;DHT22;29774;52.664;5.074;2023-02-18T02:52:30;9.40;91.20
44111;DHT22;29774;52.664;5.074;2023-02-18T02:54:56;9.40;91.30
44111;DHT22;29774;52.664;5.074;2023-02-18T02:59:51;9.30;91.50
44111;DHT22;29774;52.664;5.074;2023-02-18T03:05:14;9.30;91.70
44111;DHT22;29774;52.664;5.074;2023-02-18T03:08:18;9.30;91.80
44111;DHT22;29774;52.664;5.074;2023-02-18T03:11:10;9.40;91.80
44111;DHT22;29774;52.664;5.074;2023-02-18T03:13:44;9.40;91.80
44111;DHT22;29774;52.664;5.074;2023-02-18T03:18:56;9.50;91.90
44111;DHT22;29774;52.664;5.074;2023-02-18T03:21:43;9.50;92.00
44111;DHT22;29774;52.664;5.074;2023-02-18T03:24:16;9.50;92.00
44111;DHT22;29774;52.664;5.074;2023-02-18T03:26:47;9.60;92.10
44111;DHT22;29774;52.664;5.074;2023-02-18T03:29:16;9.60;92.10
44111;DHT22;29774;52.664;5.074;2023-02-18T03:31:45;9.60;92.10
44111;DHT22;29774;52.664;5.074;2023-02-18T03:34:16;9.70;92.20
44111;DHT22;29774;52.664;5.074;2023-02-18T03:36:43;9.70;92.20
44111;DHT22;29774;52.664;5.074;2023-02-18T03:39:18;9.70;92.30
44111;DHT22;29774;52.664;5.074;2023-02-18T03:41:45;9.70;92.30
44111;DHT22;29774;52.664;5.074;2023-02-18T03:44:11;9.70;92.40
44111;DHT22;29774;52.664;5.074;2023-02-18T03:46:39;9.70;92.40
44111;DHT22;29774;52.664;5.074;2023-02-18T03:49:05;9.70;92.40
44111;DHT22;29774;52.664;5.074;2023-02-18T03:51:31;9.70;92.50
44111;DHT22;29774;52.664;5.074;2023-02-18T03:53:57;9.80;92.40
44111;DHT22;29774;52.664;5.074;2023-02-18T03:56:23;9.80;92.40
44111;DHT22;29774;52.664;5.074;2023-02-18T03:58:48;9.90;92.30
44111;DHT22;29774;52.664;5.074;2023-02-18T04:01:14;10.00;92.30
44111;DHT22;29774;52.664;5.074;2023-02-18T04:03:40;10.00;92.20
44111;DHT22;29774;52.664;5.074;2023-02-18T04:06:06;10.00;92.20
44111;DHT22;29774;52.664;5.074;2023-02-18T04:08:31;10.00;92.10
44111;DHT22;29774;52.664;5.074;2023-02-18T04:10:57;10.00;92.00
44111;DHT22;29774;52.664;5.074;2023-02-18T04:13:23;10.00;92.00
44111;DHT22;29774;52.664;5.074;2023-02-18T04:15:49;10.00;92.00
44111;DHT22;29774;52.664;5.074;2023-02-18T04:18:15;10.00;92.00
44111;DHT22;29774;52.664;5.074;2023-02-18T04:20:41;10.00;91.90
44111;DHT22;29774;52.664;5.074;2023-02-18T04:23:06;10.10;91.90
44111;DHT22;29774;52.664;5.074;2023-02-18T04:25:32;10.10;91.80
44111;DHT22;29774;52.664;5.074;2023-02-18T04:27:58;10.10;91.70
44111;DHT22;29774;52.664;5.074;2023-02-18T04:30:23;10.10;91.60
44111;DHT22;29774;52.664;5.074;2023-02-18T04:32:49;10.10;91.50
44111;DHT22;29774;52.664;5.074;2023-02-18T04:35:15;10.20;91.30
44111;DHT22;29774;52.664;5.074;2023-02-18T04:37:40;10.20;91.30
44111;DHT22;29774;52.664;5.074;2023-02-18T04:40:07;10.10;91.20
44111;DHT22;29774;52.664;5.074;2023-02-18T04:42:33;10.20;91.30
44111;DHT22;29774;52.664;5.074;2023-02-18T04:44:59;10.20;91.30
44111;DHT22;29774;52.664;5.074;2023-02-18T04:47:25;10.20;91.30
44111;DHT22;29774;52.664;5.074;2023-02-18T04:49:51;10.20;91.30
44111;DHT22;29774;52.664;5.074;2023-02-18T04:52:16;10.20;91.30
44111;DHT22;29774;52.664;5.074;2023-02-18T04:54:42;10.10;91.30
44111;DHT22;29774;52.664;5.074;2023-02-18T04:57:07;10.10;91.40
44111;DHT22;29774;52.664;5.074;2023-02-18T04:59:33;10.10;91.50
44111;DHT22;29774;52.664;5.074;2023-02-18T05:01:59;10.10;91.50
44111;DHT22;29774;52.664;5.074;2023-02-18T05:04:24;10.20;91.40
44111;DHT22;29774;52.664;5.074;2023-02-18T05:06:50;10.20;91.20
44111;DHT22;29774;52.664;5.074;2023-02-18T05:09:15;10.20;91.10
44111;DHT22;29774;52.664;5.074;2023-02-18T05:11:41;10.20;91.00
44111;DHT22;29774;52.664;5.074;2023-02-18T05:14:07;10.30;90.90
44111;DHT22;29774;52.664;5.074;2023-02-18T05:16:32;10.30;90.70
44111;DHT22;29774;52.664;5.074;2023-02-18T05:18:58;10.20;90.80
44111;DHT22;29774;52.664;5.074;2023-02-18T05:21:24;10.30;90.70
44111;DHT22;29774;52.664;5.074;2023-02-18T05:23:50;10.30;90.70
44111;DHT22;29774;52.664;5.074;2023-02-18T05:26:15;10.30;90.60
44111;DHT22;29774;52.664;5.074;2023-02-18T05:28:41;10.30;90.60
44111;DHT22;29774;52.664;5.074;2023-02-18T05:31:07;10.30;90.70
44111;DHT22;29774;52.664;5.074;2023-02-18T05:33:32;10.30;90.60
44111;DHT22;29774;52.664;5.074;2023-02-18T05:35:58;10.40;90.40
44111;DHT22;29774;52.664;5.074;2023-02-18T05:38:24;10.40;90.40
44111;DHT22;29774;52.664;5.074;2023-02-18T05:40:49;10.30;90.30
44111;DHT22;29774;52.664;5.074;2023-02-18T05:43:15;10.40;90.30
44111;DHT22;29774;52.664;5.074;2023-02-18T05:45:41;10.30;90.50
44111;DHT22;29774;52.664;5.074;2023-02-18T05:48:06;10.30;90.50
44111;DHT22;29774;52.664;5.074;2023-02-18T05:50:32;10.40;90.50
44111;DHT22;29774;52.664;5.074;2023-02-18T05:52:58;10.40;90.40
44111;DHT22;29774;52.664;5.074;2023-02-18T05:55:24;10.40;90.00
44111;DHT22;29774;52.664;5.074;2023-02-18T05:57:50;10.50;89.90
44111;DHT22;29774;52.664;5.074;2023-02-18T06:00:16;10.40;89.90
44111;DHT22;29774;52.664;5.074;2023-02-18T06:02:42;10.40;89.60
44111;DHT22;29774;52.664;5.074;2023-02-18T06:05:08;10.40;89.70
44111;DHT22;29774;52.664;5.074;2023-02-18T06:07:34;10.40;89.60
44111;DHT22;29774;52.664;5.074;2023-02-18T06:10:00;10.50;89.30
44111;DHT22;29774;52.664;5.074;2023-02-18T06:12:26;10.50;89.00
44111;DHT22;29774;52.664;5.074;2023-02-18T06:14:52;10.60;88.90
44111;DHT22;29774;52.664;5.074;2023-02-18T06:17:17;10.50;89.30
44111;DHT22;29774;52.664;5.074;2023-02-18T06:19:44;10.40;89.50
44111;DHT22;29774;52.664;5.074;2023-02-18T06:22:10;10.40;89.50
44111;DHT22;29774;52.664;5.074;2023-02-18T06:24:36;10.40;89.40
44111;DHT22;29774;52.664;5.074;2023-02-18T06:27:02;10.40;89.50
44111;DHT22;29774;52.664;5.074;2023-02-18T06:29:28;10.40;89.30
44111;DHT22;29774;52.664;5.074;2023-02-18T06:31:59;10.50;89.00
44111;DHT22;29774;52.664;5.074;2023-02-18T06:34:26;10.50;88.70
44111;DHT22;29774;52.664;5.074;2023-02-18T06:36:51;10.60;88.30
44111;DHT22;29774;52.664;5.074;2023-02-18T06:39:17;10.50;88.20
44111;DHT22;29774;52.664;5.074;2023-02-18T06:41:43;10.60;88.30
44111;DHT22;29774;52.664;5.074;2023-02-18T06:44:09;10.60;88.30
44111;DHT22;29774;52.664;5.074;2023-02-18T06:46:35;10.60;88.20
44111;DHT22;29774;52.664;5.074;2023-02-18T06:49:02;10.60;88.20
44111;DHT22;29774;52.664;5.074;2023-02-18T06:51:27;10.60;88.10
44111;DHT22;29774;52.664;5.074;2023-02-18T06:53:53;10.60;88.10
44111;DHT22;29774;52.664;5.074;2023-02-18T06:56:18;10.50;88.20
44111;DHT22;29774;52.664;5.074;2023-02-18T06:58:44;10.60;88.10
44111;DHT22;29774;52.664;5.074;2023-02-18T07:01:09;10.60;87.90
44111;DHT22;29774;52.664;5.074;2023-02-18T07:03:35;10.50;88.20
44111;DHT22;29774;52.664;5.074;2023-02-18T07:06:01;10.50;88.30
44111;DHT22;29774;52.664;5.074;2023-02-18T07:08:26;10.60;88.20
44111;DHT22;29774;52.664;5.074;2023-02-18T07:10:52;10.60;88.30
44111;DHT22;29774;52.664;5.074;2023-02-18T07:13:18;10.60;88.10
44111;DHT22;29774;52.664;5.074;2023-02-18T07:15:43;10.70;87.60
44111;DHT22;29774;52.664;5.074;2023-02-18T07:18:09;10.70;87.70
44111;DHT22;29774;52.664;5.074;2023-02-18T07:20:34;10.60;88.10
44111;DHT22;29774;52.664;5.074;2023-02-18T07:23:00;10.60;88.20
44111;DHT22;29774;52.664;5.074;2023-02-18T07:25:26;10.60;88.20
44111;DHT22;29774;52.664;5.074;2023-02-18T07:27:51;10.50;88.10
44111;DHT22;29774;52.664;5.074;2023-02-18T07:30:18;10.60;87.80
44111;DHT22;29774;52.664;5.074;2023-02-18T07:32:43;10.60;87.90
44111;DHT22;29774;52.664;5.074;2023-02-18T07:35:12;10.60;88.10
44111;DHT22;29774;52.664;5.074;2023-02-18T07:37:39;10.40;88.40
44111;DHT22;29774;52.664;5.074;2023-02-18T07:40:05;10.60;88.00
44111;DHT22;29774;52.664;5.074;2023-02-18T07:42:31;10.60;87.90
44111;DHT22;29774;52.664;5.074;2023-02-18T07:44:56;10.50;88.20
44111;DHT22;29774;52.664;5.074;2023-02-18T07:47:22;10.50;88.30
44111;DHT22;29774;52.664;5.074;2023-02-18T07:49:48;10.50;87.90
44111;DHT22;29774;52.664;5.074;2023-02-18T07:52:14;10.60;87.50
44111;DHT22;29774;52.664;5.074;2023-02-18T07:54:40;10.60;87.30
44111;DHT22;29774;52.664;5.074;2023-02-18T07:57:06;10.60;87.30
44111;DHT22;29774;52.664;5.074;2023-02-18T07:59:31;10.60;87.50
44111;DHT22;29774;52.664;5.074;2023-02-18T08:01:57;10.60;87.40
44111;DHT22;29774;52.664;5.074;2023-02-18T08:04:23;10.60;87.50
44111;DHT22;29774;52.664;5.074;2023-02-18T08:06:48;10.60;87.40
44111;DHT22;29774;52.664;5.074;2023-02-18T08:09:15;10.70;87.20
44111;DHT22;29774;52.664;5.074;2023-02-18T08:11:42;10.70;87.10
44111;DHT22;29774;52.664;5.074;2023-02-18T08:14:08;10.70;86.90
44111;DHT22;29774;52.664;5.074;2023-02-18T08:16:34;10.70;86.50
44111;DHT22;29774;52.664;5.074;2023-02-18T08:19:01;10.70;86.60
44111;DHT22;29774;52.664;5.074;2023-02-18T08:21:28;10.70;86.70
44111;DHT22;29774;52.664;5.074;2023-02-18T08:23:53;10.70;86.60
44111;DHT22;29774;52.664;5.074;2023-02-18T08:26:20;10.70;86.50
44111;DHT22;29774;52.664;5.074;2023-02-18T08:28:46;10.70;86.50
44111;DHT22;29774;52.664;5.074;2023-02-18T08:31:20;10.70;86.20
44111;DHT22;29774;52.664;5.074;2023-02-18T08:33:47;10.70;86.30
44111;DHT22;29774;52.664;5.074;2023-02-18T08:36:13;10.70;86.30
44111;DHT22;29774;52.664;5.074;2023-02-18T08:38:39;10.60;86.50
44111;DHT22;29774;52.664;5.074;2023-02-18T08:41:06;10.70;86.40
44111;DHT22;29774;52.664;5.074;2023-02-18T08:43:32;10.70;86.50
44111;DHT22;29774;52.664;5.074;2023-02-18T08:45:58;10.70;86.40
44111;DHT22;29774;52.664;5.074;2023-02-18T08:48:23;10.70;86.10
44111;DHT22;29774;52.664;5.074;2023-02-18T08:50:49;10.70;85.90
44111;DHT22;29774;52.664;5.074;2023-02-18T08:53:16;10.70;85.90
44111;DHT22;29774;52.664;5.074;2023-02-18T08:55:42;10.80;85.40
44111;DHT22;29774;52.664;5.074;2023-02-18T08:58:08;10.80;85.30
44111;DHT22;29774;52.664;5.074;2023-02-18T09:00:34;10.80;85.20
44111;DHT22;29774;52.664;5.074;2023-02-18T09:03:00;10.70;85.30
44111;DHT22;29774;52.664;5.074;2023-02-18T09:05:26;10.80;85.10
44111;DHT22;29774;52.664;5.074;2023-02-18T09:07:52;10.80;85.00
44111;DHT22;29774;52.664;5.074;2023-02-18T09:10:17;10.80;84.80
44111;DHT22;29774;52.664;5.074;2023-02-18T09:12:43;10.80;84.60
44111;DHT22;29774;52.664;5.074;2023-02-18T09:15:08;10.90;84.50
44111;DHT22;29774;52.664;5.074;2023-02-18T09:17:34;10.90;84.50
44111;DHT22;29774;52.664;5.074;2023-02-18T09:20:00;11.00;84.40
44111;DHT22;29774;52.664;5.074;2023-02-18T09:22:26;11.00;84.30
44111;DHT22;29774;52.664;5.074;2023-02-18T09:24:51;11.10;84.00
44111;DHT22;29774;52.664;5.074;2023-02-18T09:27:17;11.10;83.90
44111;DHT22;29774;52.664;5.074;2023-02-18T09:29:42;11.00;84.00
44111;DHT22;29774;52.664;5.074;2023-02-18T09:32:09;11.10;84.00
44111;DHT22;29774;52.664;5.074;2023-02-18T09:34:36;11.10;84.20
44111;DHT22;29774;52.664;5.074;2023-02-18T09:37:02;11.10;84.00
44111;DHT22;29774;52.664;5.074;2023-02-18T09:39:28;11.20;84.00
44111;DHT22;29774;52.664;5.074;2023-02-18T09:41:58;11.20;83.90
44111;DHT22;29774;52.664;5.074;2023-02-18T09:44:29;11.30;83.70
44111;DHT22;29774;52.664;5.074;2023-02-18T09:47:09;11.30;83.70
44111;DHT22;29774;52.664;5.074;2023-02-18T09:49:39;11.50;83.40
44111;DHT22;29774;52.664;5.074;2023-02-18T09:52:16;11.50;83.20
44111;DHT22;29774;52.664;5.074;2023-02-18T09:54:43;11.50;83.10
44111;DHT22;29774;52.664;5.074;2023-02-18T09:57:34;11.50;83.00
44111;DHT22;29774;52.664;5.074;2023-02-18T10:00:09;11.50;83.10
44111;DHT22;29774;52.664;5.074;2023-02-18T10:02:39;11.60;82.90
44111;DHT22;29774;52.664;5.074;2023-02-18T10:05:06;11.70;82.80
44111;DHT22;29774;52.664;5.074;2023-02-18T10:07:37;11.70;82.80
44111;DHT22;29774;52.664;5.074;2023-02-18T10:10:45;11.70;82.60
44111;DHT22;29774;52.664;5.074;2023-02-18T10:13:15;11.70;82.60
44111;DHT22;29774;52.664;5.074;2023-02-18T10:15:42;11.60;82.60
44111;DHT22;29774;52.664;5.074;2023-02-18T10:20:46;11.60;82.70
44111;DHT22;29774;52.664;5.074;2023-02-18T10:23:13;11.60;82.70
44111;DHT22;29774;52.664;5.074;2023-02-18T10:25:43;11.60;83.00
44111;DHT22;29774;52.664;5.074;2023-02-18T10:28:11;11.60;82.90
44111;DHT22;29774;52.664;5.074;2023-02-18T10:30:48;11.60;82.90
44111;DHT22;29774;52.664;5.074;2023-02-18T10:33:32;11.70;82.90
44111;DHT22;29774;52.664;5.074;2023-02-18T10:41:59;11.70;83.40
44111;DHT22;29774;52.664;5.074;2023-02-18T10:47:22;11.70;83.20
44111;DHT22;29774;52.664;5.074;2023-02-18T10:49:57;11.70;83.40
44111;DHT22;29774;52.664;5.074;2023-02-18T10:52:24;11.70;82.80
44111;DHT22;29774;52.664;5.074;2023-02-18T10:54:59;11.80;83.00
44111;DHT22;29774;52.664;5.074;2023-02-18T10:57:26;11.80;83.10
44111;DHT22;29774;52.664;5.074;2023-02-18T10:59:59;11.90;82.70
44111;DHT22;29774;52.664;5.074;2023-02-18T11:02:29;11.90;82.70
44111;DHT22;29774;52.664;5.074;2023-02-18T11:04:58;11.90;82.70
44111;DHT22;29774;52.664;5.074;2023-02-18T11:07:30;11.90;82.70
44111;DHT22;29774;52.664;5.074;2023-02-18T11:10:15;11.90;82.70
44111;DHT22;29774;52.664;5.074;2023-02-18T11:13:11;11.90;82.70
44111;DHT22;29774;52.664;5.074;2023-02-18T11:15:35;11.90;82.50
44111;DHT22;29774;52.664;5.074;2023-02-18T11:18:13;11.90;82.60
44111;DHT22;29774;52.664;5.074;2023-02-18T11:20:58;11.90;83.00
44111;DHT22;29774;52.664;5.074;2023-02-18T11:23:24;12.00;82.90
44111;DHT22;29774;52.664;5.074;2023-02-18T11:26:02;12.00;82.60
44111;DHT22;29774;52.664;5.074;2023-02-18T11:28:41;12.00;82.50
44111;DHT22;29774;52.664;5.074;2023-02-18T11:31:11;12.00;82.40
44111;DHT22;29774;52.664;5.074;2023-02-18T11:33:43;12.00;82.40
44111;DHT22;29774;52.664;5.074;2023-02-18T11:36:24;12.00;82.70
44111;DHT22;29774;52.664;5.074;2023-02-18T11:39:04;11.90;82.30
44111;DHT22;29774;52.664;5.074;2023-02-18T11:41:57;11.90;82.40
44111;DHT22;29774;52.664;5.074;2023-02-18T11:44:40;11.90;82.50
44111;DHT22;29774;52.664;5.074;2023-02-18T11:49:38;12.30;83.30
44111;DHT22;29774;52.664;5.074;2023-02-18T11:52:17;12.20;83.00
44111;DHT22;29774;52.664;5.074;2023-02-18T11:54:59;12.10;83.00
44111;DHT22;29774;52.664;5.074;2023-02-18T11:57:27;12.00;82.80
44111;DHT22;29774;52.664;5.074;2023-02-18T11:59:53;12.00;82.80
44111;DHT22;29774;52.664;5.074;2023-02-18T12:02:30;12.00;82.70
44111;DHT22;29774;52.664;5.074;2023-02-18T12:05:03;12.00;82.50
44111;DHT22;29774;52.664;5.074;2023-02-18T12:07:57;12.00;82.70
44111;DHT22;29774;52.664;5.074;2023-02-18T12:10:34;12.00;82.70
44111;DHT22;29774;52.664;5.074;2023-02-18T12:13:22;12.00;82.40
44111;DHT22;29774;52.664;5.074;2023-02-18T12:16:10;12.10;82.70
44111;DHT22;29774;52.664;5.074;2023-02-18T12:18:53;12.10;82.60
44111;DHT22;29774;52.664;5.074;2023-02-18T12:24:37;12.10;82.60
44111;DHT22;29774;52.664;5.074;2023-02-18T12:35:55;12.20;82.30
44111;DHT22;29774;52.664;5.074;2023-02-18T13:09:02;12.20;81.50
44111;DHT22;29774;52.664;5.074;2023-02-18T13:14:17;12.30;82.10
44111;DHT22;29774;52.664;5.074;2023-02-18T13:16:47;12.30;81.80
44111;DHT22;29774;52.664;5.074;2023-02-18T13:19:51;12.30;81.60
44111;DHT22;29774;52.664;5.074;2023-02-18T13:22:21;12.30;81.50
44111;DHT22;29774;52.664;5.074;2023-02-18T13:24:48;12.30;81.70
44111;DHT22;29774;52.664;5.074;2023-02-18T13:27:32;12.20;82.20
44111;DHT22;29774;52.664;5.074;2023-02-18T13:33:13;12.30;82.10
44111;DHT22;29774;52.664;5.074;2023-02-18T13:41:09;12.20;81.70
44111;DHT22;29774;52.664;5.074;2023-02-18T13:43:36;12.30;81.80
44111;DHT22;29774;52.664;5.074;2023-02-18T13:46:11;12.30;81.50
44111;DHT22;29774;52.664;5.074;2023-02-18T13:48:48;12.20;81.20
44111;DHT22;29774;52.664;5.074;2023-02-18T13:51:38;12.30;81.30
44111;DHT22;29774;52.664;5.074;2023-02-18T13:57:03;12.30;81.50
44111;DHT22;29774;52.664;5.074;2023-02-18T13:59:47;12.20;81.30
44111;DHT22;29774;52.664;5.074;2023-02-18T14:07:28;12.30;81.30
44111;DHT22;29774;52.664;5.074;2023-02-18T14:09:57;12.20;81.50
44111;DHT22;29774;52.664;5.074;2023-02-18T14:12:24;12.20;81.30
44111;DHT22;29774;52.664;5.074;2023-02-18T14:14:50;12.30;81.20
44111;DHT22;29774;52.664;5.074;2023-02-18T14:22:45;12.30;81.00
44111;DHT22;29774;52.664;5.074;2023-02-18T14:25:21;12.20;81.40
44111;DHT22;29774;52.664;5.074;2023-02-18T14:27:52;12.20;81.10
44111;DHT22;29774;52.664;5.074;2023-02-18T14:32:47;12.20;80.80
44111;DHT22;29774;52.664;5.074;2023-02-18T14:37:59;12.20;80.90
44111;DHT22;29774;52.664;5.074;2023-02-18T14:43:45;12.20;81.10
44111;DHT22;29774;52.664;5.074;2023-02-18T14:46:43;12.00;81.10
44111;DHT22;29774;52.664;5.074;2023-02-18T14:49:17;12.00;81.30
44111;DHT22;29774;52.664;5.074;2023-02-18T14:51:47;12.10;81.30
44111;DHT22;29774;52.664;5.074;2023-02-18T14:54:18;12.10;81.10
44111;DHT22;29774;52.664;5.074;2023-02-18T14:57:08;12.10;81.10
44111;DHT22;29774;52.664;5.074;2023-02-18T14:59:40;12.10;81.20
44111;DHT22;29774;52.664;5.074;2023-02-18T15:02:24;12.20;81.10
44111;DHT22;29774;52.664;5.074;2023-02-18T15:04:52;12.20;81.20
44111;DHT22;29774;52.664;5.074;2023-02-18T15:07:19;12.20;81.20
44111;DHT22;29774;52.664;5.074;2023-02-18T15:09:52;12.10;81.10
44111;DHT22;29774;52.664;5.074;2023-02-18T15:12:20;12.20;81.10
44111;DHT22;29774;52.664;5.074;2023-02-18T15:14:50;12.10;81.10
44111;DHT22;29774;52.664;5.074;2023-02-18T15:17:18;12.10;81.00
44111;DHT22;29774;52.664;5.074;2023-02-18T15:20:05;12.10;81.00
44111;DHT22;29774;52.664;5.074;2023-02-18T15:22:32;12.00;81.20
44111;DHT22;29774;52.664;5.074;2023-02-18T15:24:59;12.00;81.20
44111;DHT22;29774;52.664;5.074;2023-02-18T15:27:29;12.00;81.40
44111;DHT22;29774;52.664;5.074;2023-02-18T15:30:23;11.90;81.40
44111;DHT22;29774;52.664;5.074;2023-02-18T15:32:54;11.90;81.60
44111;DHT22;29774;52.664;5.074;2023-02-18T15:35:22;11.90;81.80
44111;DHT22;29774;52.664;5.074;2023-02-18T15:37:55;11.80;82.00
44111;DHT22;29774;52.664;5.074;2023-02-18T15:40:22;11.80;82.10
44111;DHT22;29774;52.664;5.074;2023-02-18T15:42:51;11.80;82.30
44111;DHT22;29774;52.664;5.074;2023-02-18T15:45:18;11.70;82.50
44111;DHT22;29774;52.664;5.074;2023-02-18T15:47:49;11.80;82.50
44111;DHT22;29774;52.664;5.074;2023-02-18T15:50:19;11.70;82.60
44111;DHT22;29774;52.664;5.074;2023-02-18T15:52:46;11.70;82.60
44111;DHT22;29774;52.664;5.074;2023-02-18T15:55:24;11.70;82.80
44111;DHT22;29774;52.664;5.074;2023-02-18T15:57:52;11.70;83.20
44111;DHT22;29774;52.664;5.074;2023-02-18T16:01:22;11.60;83.60
44111;DHT22;29774;52.664;5.074;2023-02-18T16:06:19;11.50;84.10
44111;DHT22;29774;52.664;5.074;2023-02-18T16:11:23;11.50;84.20
44111;DHT22;29774;52.664;5.074;2023-02-18T16:13:49;11.40;84.50
44111;DHT22;29774;52.664;5.074;2023-02-18T16:16:28;11.40;84.60
44111;DHT22;29774;52.664;5.074;2023-02-18T16:18:55;11.40;84.70
44111;DHT22;29774;52.664;5.074;2023-02-18T16:21:43;11.30;84.80
44111;DHT22;29774;52.664;5.074;2023-02-18T16:24:27;11.30;85.00
44111;DHT22;29774;52.664;5.074;2023-02-18T16:26:56;11.30;84.90
44111;DHT22;29774;52.664;5.074;2023-02-18T16:29:33;11.30;84.90
44111;DHT22;29774;52.664;5.074;2023-02-18T16:31:59;11.40;84.70
44111;DHT22;29774;52.664;5.074;2023-02-18T16:34:24;11.30;84.70
44111;DHT22;29774;52.664;5.074;2023-02-18T16:36:52;11.20;84.90
44111;DHT22;29774;52.664;5.074;2023-02-18T16:39:36;11.20;85.20
44111;DHT22;29774;52.664;5.074;2023-02-18T16:42:02;11.10;85.30
44111;DHT22;29774;52.664;5.074;2023-02-18T16:44:28;11.10;85.30
44111;DHT22;29774;52.664;5.074;2023-02-18T16:46:53;11.10;85.40
44111;DHT22;29774;52.664;5.074;2023-02-18T16:49:19;11.00;85.60
44111;DHT22;29774;52.664;5.074;2023-02-18T16:51:45;10.90;86.00
44111;DHT22;29774;52.664;5.074;2023-02-18T16:54:12;10.90;86.10
44111;DHT22;29774;52.664;5.074;2023-02-18T16:56:38;10.80;86.40
44111;DHT22;29774;52.664;5.074;2023-02-18T16:59:04;10.80;86.50
44111;DHT22;29774;52.664;5.074;2023-02-18T17:01:37;10.80;86.60
44111;DHT22;29774;52.664;5.074;2023-02-18T17:04:08;10.70;86.80
44111;DHT22;29774;52.664;5.074;2023-02-18T17:06:34;10.70;86.90
44111;DHT22;29774;52.664;5.074;2023-02-18T17:09:00;10.70;87.00
44111;DHT22;29774;52.664;5.074;2023-02-18T17:11:33;10.70;87.00
44111;DHT22;29774;52.664;5.074;2023-02-18T17:13:59;10.70;87.10
44111;DHT22;29774;52.664;5.074;2023-02-18T17:16:26;10.70;87.10
44111;DHT22;29774;52.664;5.074;2023-02-18T17:18:52;10.70;87.00
44111;DHT22;29774;52.664;5.074;2023-02-18T17:21:21;10.70;86.90
44111;DHT22;29774;52.664;5.074;2023-02-18T17:23:48;10.70;86.90
44111;DHT22;29774;52.664;5.074;2023-02-18T17:26:26;10.50;87.10
44111;DHT22;29774;52.664;5.074;2023-02-18T17:28:53;10.60;87.20
44111;DHT22;29774;52.664;5.074;2023-02-18T17:31:25;10.50;87.20
44111;DHT22;29774;52.664;5.074;2023-02-18T17:33:57;10.50;87.30
44111;DHT22;29774;52.664;5.074;2023-02-18T17:36:22;10.50;87.30
44111;DHT22;29774;52.664;5.074;2023-02-18T17:38:48;10.40;87.40
44111;DHT22;29774;52.664;5.074;2023-02-18T17:41:15;10.40;87.40
44111;DHT22;29774;52.664;5.074;2023-02-18T17:43:41;10.40;87.50
44111;DHT22;29774;52.664;5.074;2023-02-18T17:46:14;10.40;87.50
44111;DHT22;29774;52.664;5.074;2023-02-18T17:48:41;10.40;87.60
44111;DHT22;29774;52.664;5.074;2023-02-18T17:51:09;10.30;87.70
44111;DHT22;29774;52.664;5.074;2023-02-18T17:53:37;10.30;87.80
44111;DHT22;29774;52.664;5.074;2023-02-18T17:56:02;10.30;88.00